Flight Track Log - Related Links

Times and Time Zones

All times are in EDT time to prevent confusion due to time zone crossing. See the SWA2009 flight status page for this flight to view local times or setup timezone preferences in your user account.

Time Position Orientation Groundspeed Altitude Reporting Facility
EDT Latitude Longitude Course Direction KTS MPH feet Rate Location/Type
Sat 07:13:32 PM 36.0778 -115.1756 266° West 169 194 3,500  Level Los Angeles Center
Sat 07:14:27 PM 36.0739 -115.2381 266° West 215 247 5,800 2,118 Climbing Los Angeles Center
Sat 07:15:14 PM 36.0372 -115.2692 214° Southwest 231 266 7,100 1,156 Climbing Los Angeles Center
Sat 07:16:16 PM 35.9675 -115.2997 200° South 256 295 7,900 2,226 Climbing Los Angeles Center
Sat 07:17:18 PM 35.8922 -115.3103 186° South 264 304 11,700 3,242 Climbing Los Angeles Center
Sat 07:18:20 PM 35.8000 -115.3081 179° South 303 349 14,600 2,585 Climbing Los Angeles Center
Sat 07:19:21 PM 35.6981 -115.2961 175° South 358 412 17,000 2,537 Climbing Los Angeles Center
Sat 07:20:23 PM 35.5992 -115.4003 221° Southwest 382 440 19,800 2,274 Climbing Los Angeles Center
Sat 07:21:25 PM 35.5236 -115.5019 228° Southwest 393 452 21,700 2,081 Climbing Los Angeles Center
Sat 07:22:27 PM 35.4386 -115.6169 228° Southwest 427 491 24,100 2,129 Climbing Los Angeles Center
Sat 07:23:29 PM 35.3528 -115.7300 227° Southwest 446 513 26,100 1,902 Climbing Los Angeles Center
Sat 07:24:30 PM 35.2669 -115.8450 228° Southwest 455 524 28,000 927 Climbing Los Angeles Center
Sat 07:25:32 PM 35.1817 -115.9592 228° Southwest 455 524 28,000  Level Los Angeles Center
Sat 07:26:34 PM 35.0944 -116.0731 227° Southwest 458 527 28,000  Level Los Angeles Center
Sat 07:27:36 PM 35.0078 -116.1889 228° Southwest 463 533 28,000  Level Los Angeles Center
Sat 07:28:37 PM 34.9178 -116.3028 226° Southwest 464 534 28,000 -244 Level Los Angeles Center
Sat 07:29:39 PM 34.8317 -116.4169 227° Southwest 460 529 27,500 -1,935 Descending Los Angeles Center
Sat 07:30:41 PM 34.7275 -116.5489 226° Southwest 450 518 24,000 -1,951 Descending Los Angeles Center
Sat 07:31:42 PM 34.6428 -116.6511 225° Southwest 427 491 23,500 -1,073 Descending Los Angeles Center
Sat 07:32:44 PM 34.5647 -116.7464 225° Southwest 401 461 21,800 -1,887 Descending Los Angeles Center
Sat 07:33:46 PM 34.4889 -116.8386 225° Southwest 388 447 19,600 -2,177 Descending Los Angeles Center
Sat 07:34:48 PM 34.4153 -116.9283 225° Southwest 376 433 17,300 -2,195 Descending Los Angeles Center
Sat 07:35:49 PM 34.3433 -117.0147 225° Southwest 367 422 15,100 -2,098 Descending Los Angeles Center
Sat 07:36:51 PM 34.2719 -117.0978 224° Southwest 359 413 13,000 -1,113 Descending Los Angeles Center
Sat 07:37:53 PM 34.1783 -117.1267 194° South 352 405 12,800 -652 Descending Los Angeles Center
Sat 07:38:23 PM 34.1167 -117.1500 197° South 345 397 12,000 -533 Descending Southern California TRACON
Sat 07:39:23 PM 34.0167 -117.1833 195° South 339 390 12,000 -550 Level Southern California TRACON
Sat 07:40:23 PM 33.9333 -117.2000 189° South 341 392 10,900 -1,050 Descending Southern California TRACON
Sat 07:41:23 PM 33.8667 -117.2833 226° Southwest 307 353 9,900 -866 Descending Southern California TRACON
Sat 07:42:00 PM 33.8619 -117.3144 260° West 290 334 9,500 -848 Descending Los Angeles Center
Sat 07:43:02 PM 33.8356 -117.4000 250° West 274 315 8,500 -532 Descending Los Angeles Center
Sat 07:44:04 PM 33.8064 -117.4967 250° West 257 296 8,400 -484 Descending Los Angeles Center
Sat 07:45:06 PM 33.7892 -117.5594 252° West 207 238 7,500 -927 Descending Los Angeles Center
Sat 07:46:07 PM 33.7833 -117.6233 264° West 200 230 6,500 -857 Descending Los Angeles Center
Sat 07:46:23 PM 33.7833 -117.6333 270° West 194 223 6,400 -868 Descending Southern California TRACON
Sat 07:47:23 PM 33.8333 -117.6833 320° Northwest 187 215 5,400 -600 Descending Southern California TRACON
Sat 07:48:23 PM 33.8667 -117.7167 320° Northwest 185 213 5,200 -893 Descending Southern California TRACON
Sat 07:49:24 PM 33.8500 -117.7667 248° West 178 205 3,600 -1,140 Descending Southern California TRACON
Sat 07:50:24 PM 33.8000 -117.7833 195° South 138 159 2,900 -800 Descending Southern California TRACON
Sat 07:51:24 PM 33.7667 -117.8000 203° Southwest 134 154 2,000 -750 Descending Southern California TRACON
Sat 07:52:24 PM 33.7333 -117.8333 220° Southwest 133 153 1,400 -650 Descending Southern California TRACON
Sat 07:53:24 PM 33.7167 -117.8500 220° Southwest 133 153 700 -700 Descending Southern California TRACON
Sat 07:56:00 PM 33.6757 -117.8682 132° Southeast  Level Estimated
Sat 08:03:00 PM 33.6757 -117.8682 132° Southeast  Level Estimated

Login

Don't have an account? Register now (free) for customized features, flight alerts, and more!